Hauptseite
METAR-TAF:

METAR-TAF

Flughäfen :

Flughafen Burgos

Burgos, Spanien

Breite: 42-22N, Länge: 003-38W, Höhe: 894 m

Beobachtung

Neuester Wetterbericht von vor 28 Minuten, um 02:00 UTC
Wind 2 kt aus unterschiedlichen Richtungen
Temperatur 3°C
Luftfeuchtigkeit 100%
Luftdruck 1010 hPa
Sichtweite: 0300 m
Nebel

METAR: LEBG 180200Z AUTO VRB02KT 0450 0300 R22/1100U R04/0300N FG VV002 03/03 Q1010

Zeit: 03:28 (02:28 UTC)

Prognose

Neuester Wetterbericht von vor 7 Stunden und 59 Minuten, um 18:29 UTC
Gültige Prognose vom 17 um 18 UTC bis 18 um 03 UTC
Wind 4 kt aus Nord/Nordost
Sichtweite: 0200 m
in der Höhe von 100 ft
Nebel

TAF: LEBG 171829Z 1718/1803 02004KT 0200 FG VV001

Wetterbeobachtungen und Prognosen von mehr als 4000 Flughäfen (METAR und TAF Bericht).

Die verfügbaren Stationen werden durch gelbe und rote Markierungen auf der Karte dargestellt.

Führen Sie die Maus auf sie, um den Namen der Station zu sehen.

Darauf klicken, um die Beobachtung von Wetterbeobachtungen und Prognosen zu sehen.

Um die Karte zu ändern : klicken Sie auf den grünen Tasten mit einem schwarzen Kreuz Zum Vergrößern, auf den grünen Button mit einem Gedankenstrich zu verkleinern, oder auf die grünen Pfeile für benachbarte Karten.


METAR-TAF: